createdAt,value
2023-03-29T00:02:14.297Z,4.07
2023-03-29T00:04:41.404Z,2.93
2023-03-29T00:07:08.658Z,3.83
2023-03-29T00:09:35.843Z,4.70
2023-03-29T00:12:02.772Z,3.90
2023-03-29T00:14:31.053Z,4.17
2023-03-29T00:16:58.981Z,3.87
2023-03-29T00:19:26.343Z,3.33
2023-03-29T00:21:53.414Z,3.50
2023-03-29T00:24:21.495Z,3.60
2023-03-29T00:26:48.656Z,3.03
2023-03-29T00:29:16.106Z,4.10
2023-03-29T00:31:45.968Z,3.77
2023-03-29T00:34:12.965Z,3.20
2023-03-29T00:36:40.481Z,3.07
2023-03-29T00:39:07.472Z,3.00
2023-03-29T00:41:34.528Z,3.50
2023-03-29T00:44:04.206Z,2.70
2023-03-29T00:46:32.347Z,3.40
2023-03-29T00:49:09.701Z,3.50
2023-03-29T00:51:38.672Z,3.50
2023-03-29T00:54:10.469Z,3.20
2023-03-29T00:56:40.543Z,3.83
2023-03-29T00:59:13.835Z,2.97
2023-03-29T01:01:55.008Z,3.33
2023-03-29T01:04:43.843Z,3.53
2023-03-29T01:07:21.263Z,3.40
2023-03-29T01:10:02.324Z,3.27
2023-03-29T01:12:35.945Z,3.50
2023-03-29T01:15:10.361Z,3.90
2023-03-29T01:17:38.935Z,3.10
2023-03-29T01:20:15.377Z,2.83
2023-03-29T01:23:21.292Z,3.10
2023-03-29T01:25:57.130Z,2.97
2023-03-29T01:28:44.199Z,2.70
2023-03-29T01:31:21.906Z,3.07
2023-03-29T01:33:56.064Z,3.10
2023-03-29T01:36:41.590Z,3.30
2023-03-29T01:39:08.799Z,2.73
2023-03-29T01:42:01.543Z,3.43
2023-03-29T01:45:02.178Z,3.40
2023-03-29T01:47:49.058Z,3.00
2023-03-29T01:50:48.842Z,3.50
2023-03-29T01:53:36.538Z,2.50
2023-03-29T01:56:11.749Z,3.00
2023-03-29T01:58:45.435Z,3.00
2023-03-29T02:01:22.948Z,3.57
2023-03-29T02:03:54.752Z,3.10
2023-03-29T02:06:26.179Z,3.17
2023-03-29T02:08:56.392Z,3.23
2023-03-29T02:11:26.078Z,2.90
2023-03-29T02:13:53.567Z,3.00
2023-03-29T02:16:21.265Z,2.60
2023-03-29T02:18:51.218Z,2.53
2023-03-29T02:21:37.044Z,2.87
2023-03-29T02:24:09.196Z,2.83
2023-03-29T02:26:36.212Z,2.87
2023-03-29T02:29:03.410Z,2.40
2023-03-29T02:31:53.766Z,2.50
2023-03-29T02:34:38.887Z,2.87
2023-03-29T02:37:11.785Z,2.43
2023-03-29T02:39:41.154Z,3.10
2023-03-29T02:42:09.450Z,2.87
2023-03-29T02:44:40.848Z,3.37
2023-03-29T02:47:26.947Z,2.83
2023-03-29T02:49:54.217Z,3.13
2023-03-29T02:52:34.867Z,3.10
2023-03-29T02:55:05.451Z,3.13
2023-03-29T02:57:32.562Z,3.03
2023-03-29T03:00:01.059Z,2.90
2023-03-29T03:02:28.181Z,4.03
2023-03-29T03:04:55.134Z,3.03
2023-03-29T03:07:22.161Z,6.60
2023-03-29T03:09:49.114Z,3.27
2023-03-29T03:12:16.056Z,3.40
2023-03-29T03:14:43.185Z,3.27
2023-03-29T03:17:10.088Z,3.37
2023-03-29T03:19:36.957Z,3.40
2023-03-29T03:22:05.943Z,3.50
2023-03-29T03:24:32.852Z,3.07
2023-03-29T03:26:59.755Z,3.40
2023-03-29T03:29:28.321Z,2.80
2023-03-29T03:31:55.631Z,3.80
2023-03-29T03:34:23.258Z,3.10
2023-03-29T03:36:50.497Z,3.17
2023-03-29T03:39:17.450Z,3.70
2023-03-29T03:41:44.445Z,4.40
2023-03-29T03:44:11.854Z,4.50
2023-03-29T03:46:38.762Z,5.53
2023-03-29T03:49:05.743Z,4.50
2023-03-29T03:51:32.710Z,4.50
2023-03-29T03:53:59.643Z,4.60
2023-03-29T03:56:29.840Z,4.83
2023-03-29T03:58:57.222Z,4.20
2023-03-29T04:01:24.467Z,4.73
2023-03-29T04:03:51.491Z,6.70
2023-03-29T04:06:18.636Z,5.43
2023-03-29T04:08:45.532Z,5.33
2023-03-29T04:11:12.575Z,5.90
2023-03-29T04:13:39.845Z,5.40
2023-03-29T04:16:07.561Z,5.40
2023-03-29T04:18:34.562Z,5.13
2023-03-29T04:21:01.992Z,5.50
2023-03-29T04:23:28.994Z,6.57
2023-03-29T04:25:56.721Z,5.03
2023-03-29T04:28:23.799Z,5.37
2023-03-29T04:30:50.759Z,4.33
2023-03-29T04:33:17.808Z,5.40
2023-03-29T04:35:44.953Z,4.90
2023-03-29T04:38:11.887Z,4.60
2023-03-29T04:40:38.792Z,5.40
2023-03-29T04:43:06.354Z,4.93
2023-03-29T04:45:33.268Z,5.00
2023-03-29T04:48:00.210Z,4.87
2023-03-29T04:50:27.548Z,4.63
2023-03-29T04:52:54.466Z,4.77
2023-03-29T04:55:21.364Z,4.50
2023-03-29T04:57:48.306Z,4.50
2023-03-29T05:00:17.059Z,3.50
2023-03-29T05:02:45.024Z,4.33
2023-03-29T05:05:13.369Z,4.00
2023-03-29T05:07:40.967Z,4.63
2023-03-29T05:10:09.314Z,4.10
2023-03-29T05:12:36.822Z,4.00
2023-03-29T05:15:08.229Z,4.60
2023-03-29T05:17:35.484Z,4.57
2023-03-29T05:20:09.235Z,4.50
2023-03-29T05:22:36.559Z,4.13
2023-03-29T05:25:04.138Z,4.13
2023-03-29T05:27:31.113Z,4.77
2023-03-29T05:29:58.072Z,4.87
2023-03-29T05:32:25.098Z,4.20
2023-03-29T05:34:52.941Z,3.93
2023-03-29T05:37:20.159Z,4.60
2023-03-29T05:39:48.993Z,4.30
2023-03-29T05:42:16.142Z,5.27
2023-03-29T05:44:43.266Z,3.80
2023-03-29T05:47:10.663Z,4.13
2023-03-29T05:49:38.170Z,3.83
2023-03-29T05:52:06.758Z,3.63
2023-03-29T05:54:33.883Z,4.80
2023-03-29T05:57:01.301Z,3.53
2023-03-29T05:59:29.665Z,3.70
2023-03-29T06:01:57.045Z,4.73
2023-03-29T06:04:24.544Z,3.90
2023-03-29T06:06:53.380Z,4.07
2023-03-29T06:09:20.370Z,3.60
2023-03-29T06:11:47.667Z,3.50
2023-03-29T06:14:14.826Z,4.80
2023-03-29T06:16:43.304Z,4.30
2023-03-29T06:19:10.409Z,4.30
2023-03-29T06:21:37.401Z,3.57
2023-03-29T06:24:04.928Z,3.53
2023-03-29T06:26:32.205Z,4.00
2023-03-29T06:28:59.210Z,4.67
2023-03-29T06:31:26.335Z,4.30
2023-03-29T06:33:53.494Z,4.23
2023-03-29T06:36:20.486Z,4.60
2023-03-29T06:38:47.458Z,4.83
2023-03-29T06:41:14.947Z,5.17
2023-03-29T06:43:41.963Z,3.80
2023-03-29T06:46:11.996Z,4.57
2023-03-29T06:48:41.316Z,8.17
2023-03-29T06:51:08.607Z,4.20
2023-03-29T06:53:36.697Z,5.10
2023-03-29T06:56:09.322Z,4.30
2023-03-29T06:58:36.912Z,2.90
2023-03-29T07:01:06.121Z,3.20
2023-03-29T07:03:35.369Z,3.33
2023-03-29T07:06:09.839Z,3.00
2023-03-29T07:08:44.921Z,3.43
2023-03-29T07:11:14.603Z,3.40
2023-03-29T07:13:44.972Z,4.20
2023-03-29T07:16:13.848Z,3.43
2023-03-29T07:18:42.845Z,3.50
2023-03-29T07:21:12.367Z,3.17
2023-03-29T07:23:40.737Z,3.20
2023-03-29T07:26:08.883Z,4.10
2023-03-29T07:28:37.662Z,4.33
2023-03-29T07:31:07.976Z,2.57
2023-03-29T07:33:36.001Z,4.10
2023-03-29T07:36:05.045Z,3.13
2023-03-29T07:38:32.557Z,3.50
2023-03-29T07:41:04.095Z,3.33
2023-03-29T07:43:31.320Z,2.90
2023-03-29T07:46:02.537Z,3.17
2023-03-29T07:48:30.112Z,3.33
2023-03-29T07:50:57.609Z,2.93
2023-03-29T07:53:24.756Z,2.90
2023-03-29T07:55:54.354Z,3.37
2023-03-29T07:58:21.749Z,3.10
2023-03-29T08:00:49.238Z,3.17
2023-03-29T08:03:17.059Z,3.30
2023-03-29T08:05:44.159Z,11.97
2023-03-29T08:08:11.145Z,6.07
2023-03-29T08:10:39.620Z,2.80
2023-03-29T08:13:09.092Z,3.47
2023-03-29T08:15:39.167Z,3.10
2023-03-29T08:18:07.802Z,3.43
2023-03-29T08:20:35.009Z,3.37
2023-03-29T08:23:02.096Z,4.27
2023-03-29T08:25:29.153Z,2.67
2023-03-29T08:27:56.216Z,3.23
2023-03-29T08:30:23.271Z,2.60
2023-03-29T08:32:53.651Z,2.53
2023-03-29T08:35:22.394Z,2.80
2023-03-29T08:37:49.578Z,3.73
2023-03-29T08:40:22.193Z,3.40
2023-03-29T08:43:33.311Z,3.23
2023-03-29T08:46:51.867Z,2.43
2023-03-29T08:49:20.421Z,3.03
2023-03-29T08:51:54.911Z,2.83
2023-03-29T08:54:27.092Z,2.13
2023-03-29T08:57:03.251Z,2.57
2023-03-29T08:59:33.154Z,3.20
2023-03-29T09:02:02.855Z,2.40
2023-03-29T09:04:35.682Z,2.10
2023-03-29T09:07:06.398Z,2.70
2023-03-29T09:09:34.781Z,3.17
2023-03-29T09:12:22.067Z,3.40
2023-03-29T09:15:29.039Z,2.57
2023-03-29T09:18:25.936Z,2.70
2023-03-29T09:21:31.266Z,5.47
2023-03-29T09:24:32.648Z,4.97
2023-03-29T09:27:30.920Z,2.70
2023-03-29T09:30:53.738Z,2.53
2023-03-29T09:33:23.236Z,3.10
2023-03-29T09:36:05.048Z,2.57
2023-03-29T09:38:34.992Z,2.77
2023-03-29T09:41:19.070Z,2.03
2023-03-29T09:43:47.473Z,1.93
2023-03-29T09:46:45.224Z,2.57
2023-03-29T09:49:27.498Z,1.80
2023-03-29T09:51:59.718Z,2.20
2023-03-29T09:54:26.730Z,2.53
2023-03-29T09:56:54.176Z,2.57
2023-03-29T09:59:21.798Z,2.17
2023-03-29T10:01:48.845Z,2.53
2023-03-29T10:04:16.885Z,2.50
2023-03-29T10:06:50.334Z,2.33
2023-03-29T10:09:21.969Z,2.40
2023-03-29T10:11:53.933Z,2.50
2023-03-29T10:14:45.312Z,2.70
2023-03-29T10:17:39.709Z,3.40
2023-03-29T10:20:14.941Z,2.90
2023-03-29T10:22:49.970Z,3.07
2023-03-29T10:25:18.411Z,2.53
2023-03-29T10:27:47.869Z,2.97
2023-03-29T10:30:23.189Z,2.50
2023-03-29T10:32:58.875Z,2.63
2023-03-29T10:35:34.356Z,3.00
2023-03-29T10:38:07.881Z,2.47
2023-03-29T10:40:42.297Z,2.40
2023-03-29T10:43:25.632Z,2.57
2023-03-29T10:45:56.521Z,2.80
2023-03-29T10:48:31.161Z,2.50
2023-03-29T10:51:01.425Z,3.13
2023-03-29T10:53:32.651Z,2.70
2023-03-29T10:56:08.274Z,2.50
2023-03-29T10:59:00.158Z,7.63
2023-03-29T11:01:53.145Z,2.40
2023-03-29T11:04:38.200Z,2.77
2023-03-29T11:07:31.467Z,2.80
2023-03-29T11:10:28.831Z,2.67
2023-03-29T11:13:11.299Z,3.10
2023-03-29T11:16:13.556Z,2.83
2023-03-29T11:18:48.113Z,2.90
2023-03-29T11:21:42.533Z,2.87
2023-03-29T11:24:33.988Z,2.93
2023-03-29T11:27:07.230Z,3.33
2023-03-29T11:29:57.535Z,2.90
2023-03-29T11:33:10.728Z,3.07
2023-03-29T11:36:01.690Z,2.60
2023-03-29T11:38:55.996Z,2.97
2023-03-29T11:41:28.809Z,2.40
2023-03-29T11:44:38.958Z,3.07
2023-03-29T11:47:12.805Z,3.10
2023-03-29T11:50:20.983Z,2.90
2023-03-29T11:53:00.036Z,3.50
2023-03-29T11:55:36.059Z,2.73
2023-03-29T11:58:32.378Z,3.73
2023-03-29T12:01:09.312Z,3.23
2023-03-29T12:03:38.734Z,3.70
2023-03-29T12:06:17.778Z,5.67
2023-03-29T12:09:50.698Z,8.27
2023-03-29T12:12:31.546Z,3.33
2023-03-29T12:15:07.403Z,3.87
2023-03-29T12:18:04.899Z,3.53
2023-03-29T12:20:39.734Z,3.17
2023-03-29T12:23:15.201Z,2.87
2023-03-29T12:26:19.542Z,3.13
2023-03-29T12:29:17.661Z,3.90
2023-03-29T12:32:33.728Z,3.60
2023-03-29T12:35:35.577Z,3.47
2023-03-29T12:38:34.606Z,3.83
2023-03-29T12:41:20.049Z,3.00
2023-03-29T12:43:48.132Z,3.70
2023-03-29T12:46:27.406Z,3.57
2023-03-29T12:49:34.594Z,3.10
2023-03-29T12:52:22.120Z,2.90
2023-03-29T12:54:59.695Z,3.50
2023-03-29T12:57:41.129Z,3.87
2023-03-29T13:00:42.262Z,3.43
2023-03-29T13:03:27.181Z,3.43
2023-03-29T13:06:03.744Z,2.90
2023-03-29T13:08:41.880Z,3.57
2023-03-29T13:11:40.060Z,3.63
2023-03-29T13:14:17.159Z,3.43
2023-03-29T13:16:44.148Z,3.27
2023-03-29T13:19:45.848Z,3.03
2023-03-29T13:22:43.518Z,2.93
2023-03-29T13:25:41.377Z,3.00
2023-03-29T13:28:43.276Z,3.40
2023-03-29T13:31:46.810Z,3.33
2023-03-29T13:34:46.459Z,3.40
2023-03-29T13:37:25.171Z,4.97
2023-03-29T13:39:54.956Z,9.80
2023-03-29T13:42:35.543Z,3.30
2023-03-29T13:45:28.490Z,3.27
2023-03-29T13:48:51.754Z,3.30
2023-03-29T13:51:18.699Z,3.27
2023-03-29T13:54:08.173Z,3.37
2023-03-29T13:56:40.203Z,2.90
2023-03-29T13:59:20.370Z,4.43
2023-03-29T14:01:54.620Z,3.30
2023-03-29T14:04:26.835Z,3.17
2023-03-29T14:06:56.831Z,3.70
2023-03-29T14:09:31.839Z,2.87
2023-03-29T14:12:00.764Z,3.27
2023-03-29T14:14:31.641Z,3.03
2023-03-29T14:17:00.901Z,3.10
2023-03-29T14:19:38.667Z,3.20
2023-03-29T14:22:17.514Z,3.70
2023-03-29T14:25:14.066Z,4.00
2023-03-29T14:27:41.887Z,3.20
2023-03-29T14:30:28.920Z,3.60
2023-03-29T14:32:56.801Z,3.50
2023-03-29T14:35:33.757Z,3.40
2023-03-29T14:38:01.957Z,4.50
2023-03-29T14:40:31.500Z,3.80
2023-03-29T14:43:05.337Z,3.30
2023-03-29T14:45:32.612Z,4.33
2023-03-29T14:48:00.594Z,4.37
2023-03-29T14:50:30.873Z,10.87
2023-03-29T14:52:59.564Z,6.80
2023-03-29T14:55:27.321Z,8.30
2023-03-29T14:57:55.801Z,4.37
2023-03-29T15:00:28.765Z,4.67
2023-03-29T15:03:01.713Z,4.87
2023-03-29T15:05:46.800Z,4.00
2023-03-29T15:08:18.727Z,4.50
2023-03-29T15:10:45.941Z,4.93
2023-03-29T15:13:21.751Z,4.60
2023-03-29T15:15:54.300Z,5.40
2023-03-29T15:18:31.539Z,4.70
2023-03-29T15:20:59.611Z,4.70
2023-03-29T15:23:27.690Z,4.63
2023-03-29T15:26:09.671Z,4.80
2023-03-29T15:29:03.333Z,4.40
2023-03-29T15:31:37.271Z,5.80
2023-03-29T15:34:09.284Z,5.23
2023-03-29T15:36:42.285Z,5.07
2023-03-29T15:39:13.677Z,4.70
2023-03-29T15:41:42.425Z,4.60
2023-03-29T15:44:10.699Z,5.50
2023-03-29T15:46:38.124Z,5.23
2023-03-29T15:49:05.142Z,5.43
2023-03-29T15:51:32.132Z,5.60
2023-03-29T15:53:59.143Z,11.00
2023-03-29T15:56:27.089Z,7.67
2023-03-29T15:58:54.080Z,5.07
2023-03-29T16:01:35.807Z,5.10
2023-03-29T16:04:24.795Z,5.20
2023-03-29T16:06:54.366Z,5.20
2023-03-29T16:09:22.592Z,5.57
2023-03-29T16:11:50.278Z,5.97
2023-03-29T16:14:30.469Z,4.57
2023-03-29T16:16:59.825Z,5.03
2023-03-29T16:19:28.271Z,5.20
2023-03-29T16:21:55.908Z,5.53
2023-03-29T16:24:29.376Z,5.27
2023-03-29T16:26:57.352Z,5.80
2023-03-29T16:29:25.439Z,5.43
2023-03-29T16:31:54.052Z,5.63
2023-03-29T16:34:21.830Z,5.37
2023-03-29T16:36:49.705Z,5.33
2023-03-29T16:39:18.160Z,6.00
2023-03-29T16:41:48.395Z,6.30
2023-03-29T16:44:23.883Z,5.77
2023-03-29T16:46:54.237Z,6.23
2023-03-29T16:49:21.693Z,6.10
2023-03-29T16:51:48.778Z,6.97
2023-03-29T16:54:20.218Z,6.70
2023-03-29T16:56:47.443Z,6.07
2023-03-29T16:59:15.360Z,6.17
2023-03-29T17:01:42.919Z,5.40
2023-03-29T17:04:09.995Z,6.17
2023-03-29T17:06:36.985Z,6.07
2023-03-29T17:09:05.246Z,6.67
2023-03-29T17:11:32.556Z,5.97
2023-03-29T17:14:00.107Z,6.87
2023-03-29T17:16:29.112Z,7.00
2023-03-29T17:19:00.443Z,5.90
2023-03-29T17:21:28.942Z,5.80
2023-03-29T17:23:55.967Z,6.63
2023-03-29T17:26:22.895Z,6.70
2023-03-29T17:28:49.917Z,6.20
2023-03-29T17:31:19.028Z,24.70
2023-03-29T17:33:46.246Z,9.80
2023-03-29T17:36:13.282Z,8.73
2023-03-29T17:38:40.217Z,5.80
2023-03-29T17:41:08.298Z,6.90
2023-03-29T17:43:35.236Z,6.37
2023-03-29T17:46:02.480Z,8.73
2023-03-29T17:48:29.797Z,7.57
2023-03-29T17:50:57.768Z,6.60
2023-03-29T17:53:25.334Z,6.60
2023-03-29T17:55:52.549Z,6.40
2023-03-29T17:58:19.712Z,6.37
2023-03-29T18:00:46.681Z,6.53
2023-03-29T18:03:14.555Z,7.07
2023-03-29T18:05:41.504Z,7.77
2023-03-29T18:08:08.752Z,7.10
2023-03-29T18:10:36.855Z,7.37
2023-03-29T18:13:03.889Z,7.00
2023-03-29T18:15:30.921Z,6.03
2023-03-29T18:17:57.904Z,7.00
2023-03-29T18:20:24.969Z,6.80
2023-03-29T18:22:51.925Z,6.87
2023-03-29T18:25:20.036Z,6.30
2023-03-29T18:27:46.978Z,6.63
2023-03-29T18:30:16.616Z,6.63
2023-03-29T18:32:43.752Z,7.30
2023-03-29T18:35:11.569Z,6.30
2023-03-29T18:37:38.727Z,6.37
2023-03-29T18:40:08.278Z,6.70
2023-03-29T18:42:35.361Z,8.37
2023-03-29T18:45:02.834Z,7.33
2023-03-29T18:47:29.848Z,7.47
2023-03-29T18:49:57.746Z,8.13
2023-03-29T18:52:24.756Z,7.37
2023-03-29T18:54:51.934Z,6.40
2023-03-29T18:57:18.953Z,7.33
2023-03-29T18:59:45.942Z,7.47
2023-03-29T19:02:13.064Z,8.37
2023-03-29T19:04:40.020Z,7.57
2023-03-29T19:07:08.870Z,8.00
2023-03-29T19:09:36.005Z,8.00
2023-03-29T19:12:03.569Z,8.40
2023-03-29T19:14:30.723Z,7.50
2023-03-29T19:16:57.749Z,8.17
2023-03-29T19:19:26.351Z,7.73
2023-03-29T19:21:53.690Z,6.93
2023-03-29T19:24:21.992Z,7.80
2023-03-29T19:26:51.544Z,6.40
2023-03-29T19:29:18.513Z,7.17
2023-03-29T19:31:45.837Z,6.60
2023-03-29T19:34:12.938Z,6.23
2023-03-29T19:36:40.079Z,6.23
2023-03-29T19:39:07.546Z,7.80
2023-03-29T19:41:34.627Z,6.57
2023-03-29T19:44:01.849Z,6.77
2023-03-29T19:46:29.267Z,7.20
2023-03-29T19:48:56.420Z,6.80
2023-03-29T19:51:26.811Z,5.70
2023-03-29T19:53:55.472Z,6.57
2023-03-29T19:56:26.858Z,6.77
2023-03-29T19:58:54.137Z,6.47
2023-03-29T20:01:21.498Z,6.40
2023-03-29T20:03:49.415Z,7.00
2023-03-29T20:06:21.572Z,7.37
2023-03-29T20:08:48.661Z,7.37
2023-03-29T20:11:16.318Z,8.03
2023-03-29T20:13:45.332Z,6.90
2023-03-29T20:16:18.275Z,7.20
2023-03-29T20:18:46.509Z,6.63
2023-03-29T20:21:16.797Z,7.50
2023-03-29T20:23:44.593Z,7.30
2023-03-29T20:26:12.211Z,8.40
2023-03-29T20:28:39.488Z,7.67
2023-03-29T20:31:10.818Z,8.70
2023-03-29T20:33:38.697Z,7.53
2023-03-29T20:36:06.742Z,7.97
2023-03-29T20:38:35.038Z,7.70
2023-03-29T20:41:04.189Z,7.77
2023-03-29T20:43:37.765Z,8.30
2023-03-29T20:46:14.389Z,8.60
2023-03-29T20:49:08.390Z,8.63
2023-03-29T20:51:36.782Z,7.40
2023-03-29T20:54:07.546Z,9.10
2023-03-29T20:56:42.376Z,7.40
2023-03-29T20:59:12.635Z,7.47
2023-03-29T21:01:42.751Z,7.10
2023-03-29T21:04:10.733Z,7.03
2023-03-29T21:06:39.554Z,6.97
2023-03-29T21:09:06.867Z,7.13
2023-03-29T21:11:34.014Z,6.23
2023-03-29T21:14:01.437Z,6.63
2023-03-29T21:16:29.223Z,6.67
2023-03-29T21:18:56.462Z,6.30
2023-03-29T21:21:23.507Z,6.57
2023-03-29T21:23:50.881Z,6.63
2023-03-29T21:26:18.007Z,6.00
2023-03-29T21:28:45.073Z,6.17
2023-03-29T21:31:12.113Z,6.30
2023-03-29T21:33:39.194Z,6.90
2023-03-29T21:36:06.530Z,6.37
2023-03-29T21:38:33.619Z,5.97
2023-03-29T21:41:02.584Z,7.00
2023-03-29T21:43:29.662Z,6.60
2023-03-29T21:45:57.697Z,7.27
2023-03-29T21:48:24.804Z,6.50
2023-03-29T21:50:51.834Z,6.43
2023-03-29T21:53:18.793Z,5.77
2023-03-29T21:55:49.007Z,6.70
2023-03-29T21:58:16.297Z,6.10
2023-03-29T22:00:43.695Z,5.70
2023-03-29T22:03:10.877Z,6.07
2023-03-29T22:05:38.054Z,6.43
2023-03-29T22:08:06.081Z,5.63
2023-03-29T22:10:33.072Z,6.50
2023-03-29T22:13:03.435Z,6.70
2023-03-29T22:15:35.453Z,6.87
2023-03-29T22:18:03.937Z,7.10
2023-03-29T22:20:35.716Z,6.93
2023-03-29T22:23:03.284Z,6.87
2023-03-29T22:25:31.255Z,6.90
2023-03-29T22:27:59.213Z,7.50
2023-03-29T22:30:27.566Z,7.30
2023-03-29T22:32:54.649Z,7.67
2023-03-29T22:35:21.977Z,7.20
2023-03-29T22:37:49.217Z,7.90
2023-03-29T22:40:17.607Z,7.77
2023-03-29T22:42:44.618Z,7.93
2023-03-29T22:45:11.821Z,7.67
2023-03-29T22:47:38.831Z,8.67
2023-03-29T22:50:07.209Z,7.17
2023-03-29T22:52:34.193Z,7.70
2023-03-29T22:55:01.193Z,10.00
2023-03-29T22:57:28.419Z,8.73
2023-03-29T22:59:55.503Z,8.47
2023-03-29T23:02:22.727Z,7.10
2023-03-29T23:04:50.056Z,6.83
2023-03-29T23:07:17.364Z,7.47
2023-03-29T23:09:44.598Z,7.80
2023-03-29T23:12:12.007Z,8.10
2023-03-29T23:14:42.741Z,7.13
2023-03-29T23:17:10.359Z,7.67
2023-03-29T23:19:38.258Z,8.40
2023-03-29T23:22:05.428Z,7.60
2023-03-29T23:24:32.633Z,8.17
2023-03-29T23:27:01.222Z,8.00
2023-03-29T23:29:28.629Z,7.93
2023-03-29T23:31:57.071Z,7.97
2023-03-29T23:34:24.426Z,7.60
2023-03-29T23:36:51.440Z,8.03
2023-03-29T23:39:18.491Z,8.43
2023-03-29T23:41:45.724Z,7.80
2023-03-29T23:44:12.706Z,7.47
2023-03-29T23:46:41.073Z,8.40
2023-03-29T23:49:09.995Z,8.00
2023-03-29T23:51:39.260Z,7.80
2023-03-29T23:54:06.676Z,7.87
2023-03-29T23:56:33.825Z,7.70
2023-03-29T23:59:01.721Z,7.70
